Marmon, North Dakota
Current Conditions -  °F | °C
As of 1:52 AM on Tuesday 21 Oct 2014 (Local Time) from KISN Reporting Station
Clear Clear  
Wind Chill: 50°   Ceiling: Unl
Heat Index: 50°   Visibility: 10mi
Dew Point: 40°   Wind: 0mph
Humidity: 68%   Direction: NA
Pressure: 29.8"   Gusts: NA
Location:  48.5906°N, 103.667°W
Report Text: KISN 210652Z AUTO 00000KT 10SM CLR 10/04 A2980 RMK AO2 SLP089 T01000044
Loading
Personal Weather Stations






























Interactive Weather Map
Tropical Storm Tracking
New forecast layout! Learn more

10-Day Weather Forecast

Advertisements
Track Severe Weather on mobile